createdAt,value
2023-05-05T00:02:11.386Z,3.70
2023-05-05T00:04:57.488Z,3.22
2023-05-05T00:07:43.324Z,3.47
2023-05-05T00:10:30.275Z,3.53
2023-05-05T00:13:16.975Z,3.40
2023-05-05T00:18:49.173Z,3.13
2023-05-05T00:21:35.744Z,3.55
2023-05-05T00:24:21.908Z,4.07
2023-05-05T00:27:07.978Z,3.40
2023-05-05T00:29:55.239Z,3.40
2023-05-05T00:32:41.696Z,3.50
2023-05-05T00:35:27.900Z,3.75
2023-05-05T00:38:14.062Z,3.50
2023-05-05T00:43:47.413Z,3.05
2023-05-05T00:46:34.797Z,3.53
2023-05-05T00:49:20.869Z,3.70
2023-05-05T00:52:08.607Z,3.30
2023-05-05T00:54:57.376Z,3.78
2023-05-05T00:57:45.310Z,3.72
2023-05-05T01:00:32.498Z,3.92
2023-05-05T01:03:18.944Z,3.30
2023-05-05T01:06:26.596Z,3.60
2023-05-05T01:09:29.617Z,3.40
2023-05-05T01:12:27.668Z,3.55
2023-05-05T01:15:29.123Z,3.78
2023-05-05T01:18:19.952Z,3.20
2023-05-05T01:21:28.376Z,3.70
2023-05-05T01:24:34.952Z,4.00
2023-05-05T01:27:49.376Z,3.97
2023-05-05T01:30:58.986Z,4.05
2023-05-05T01:33:49.573Z,3.67
2023-05-05T01:36:44.459Z,4.07
2023-05-05T01:39:33.618Z,3.60
2023-05-05T01:42:21.412Z,3.60
2023-05-05T01:45:09.618Z,4.03
2023-05-05T01:47:57.277Z,3.47
2023-05-05T01:50:46.737Z,3.55
2023-05-05T01:53:34.227Z,3.65
2023-05-05T01:56:23.816Z,3.45
2023-05-05T01:59:13.737Z,3.22
2023-05-05T02:02:02.170Z,3.97
2023-05-05T02:04:49.442Z,3.97
2023-05-05T02:07:36.655Z,3.60
2023-05-05T02:10:23.362Z,3.40
2023-05-05T02:13:12.530Z,3.70
2023-05-05T02:15:59.803Z,3.58
2023-05-05T02:18:47.258Z,3.70
2023-05-05T02:21:34.665Z,3.90
2023-05-05T02:24:20.651Z,3.95
2023-05-05T02:27:08.364Z,3.83
2023-05-05T02:29:58.999Z,3.70
2023-05-05T02:32:57.104Z,3.70
2023-05-05T02:35:47.807Z,3.65
2023-05-05T02:38:39.068Z,3.85
2023-05-05T02:41:26.933Z,4.30
2023-05-05T02:44:15.158Z,3.78
2023-05-05T02:47:04.825Z,4.22
2023-05-05T02:49:52.008Z,3.45
2023-05-05T02:52:41.645Z,3.95
2023-05-05T02:55:51.785Z,3.67
2023-05-05T02:58:51.896Z,3.47
2023-05-05T03:01:51.081Z,4.20
2023-05-05T03:04:42.639Z,4.20
2023-05-05T03:07:40.915Z,4.03
2023-05-05T03:10:31.189Z,3.70
2023-05-05T03:13:22.996Z,3.95
2023-05-05T03:16:10.860Z,3.97
2023-05-05T03:18:59.485Z,3.90
2023-05-05T03:21:46.464Z,3.70
2023-05-05T03:24:32.921Z,4.18
2023-05-05T03:27:24.084Z,3.60
2023-05-05T03:30:11.177Z,3.75
2023-05-05T03:33:05.196Z,4.13
2023-05-05T03:35:51.648Z,4.00
2023-05-05T03:41:25.865Z,3.60
2023-05-05T03:44:12.488Z,3.45
2023-05-05T03:46:59.014Z,4.22
2023-05-05T03:49:46.411Z,3.95
2023-05-05T03:52:32.832Z,3.80
2023-05-05T03:55:20.650Z,3.42
2023-05-05T03:58:07.160Z,5.30
2023-05-05T04:00:53.561Z,4.45
2023-05-05T04:03:40.161Z,3.80
2023-05-05T04:06:26.502Z,3.63
2023-05-05T04:09:13.946Z,3.65
2023-05-05T04:12:01.467Z,3.50
2023-05-05T04:14:48.178Z,5.90
2023-05-05T04:17:34.728Z,3.70
2023-05-05T04:20:21.515Z,3.80
2023-05-05T04:23:07.995Z,3.83
2023-05-05T04:28:42.035Z,3.53
2023-05-05T04:31:28.787Z,3.90
2023-05-05T04:34:15.093Z,3.72
2023-05-05T04:37:01.168Z,3.72
2023-05-05T04:39:48.781Z,3.60
2023-05-05T04:42:35.000Z,4.13
2023-05-05T04:45:22.253Z,3.90
2023-05-05T04:48:08.519Z,3.92
2023-05-05T04:50:55.958Z,3.60
2023-05-05T04:53:42.055Z,4.28
2023-05-05T04:56:30.708Z,3.88
2023-05-05T04:59:16.931Z,4.40
2023-05-05T05:02:03.164Z,4.10
2023-05-05T05:04:49.098Z,4.22
2023-05-05T05:07:35.502Z,4.38
2023-05-05T05:10:22.466Z,4.13
2023-05-05T05:13:09.595Z,6.28
2023-05-05T05:15:56.668Z,5.05
2023-05-05T05:18:42.892Z,5.40
2023-05-05T05:21:29.435Z,4.88
2023-05-05T05:27:03.300Z,4.97
2023-05-05T05:29:49.554Z,4.78
2023-05-05T05:32:36.059Z,4.88
2023-05-05T05:35:22.411Z,4.50
2023-05-05T05:38:08.806Z,5.03
2023-05-05T05:40:55.173Z,5.10
2023-05-05T05:43:42.617Z,4.93
2023-05-05T05:46:28.501Z,4.97
2023-05-05T05:49:16.330Z,4.47
2023-05-05T05:52:02.731Z,4.90
2023-05-05T05:54:49.163Z,4.50
2023-05-05T05:57:35.946Z,4.93
2023-05-05T06:00:24.105Z,5.13
2023-05-05T06:03:17.674Z,5.30
2023-05-05T06:06:03.818Z,4.75
2023-05-05T06:08:49.743Z,4.65
2023-05-05T06:11:37.035Z,4.78
2023-05-05T06:14:22.931Z,4.70
2023-05-05T06:17:09.794Z,4.35
2023-05-05T06:19:56.364Z,5.03
2023-05-05T06:22:42.273Z,4.82
2023-05-05T06:25:28.802Z,4.57
2023-05-05T06:28:14.641Z,4.95
2023-05-05T06:31:00.529Z,4.90
2023-05-05T06:33:46.567Z,4.50
2023-05-05T06:36:33.248Z,4.32
2023-05-05T06:39:19.440Z,4.43
2023-05-05T06:42:05.366Z,4.43
2023-05-05T06:44:51.381Z,4.40
2023-05-05T06:47:37.635Z,4.38
2023-05-05T06:50:23.720Z,4.38
2023-05-05T06:53:09.514Z,4.35
2023-05-05T06:55:55.950Z,4.05
2023-05-05T07:01:28.113Z,18.65
2023-05-05T07:04:13.868Z,4.40
2023-05-05T07:06:59.754Z,4.15
2023-05-05T07:09:45.889Z,3.95
2023-05-05T07:12:32.145Z,4.70
2023-05-05T07:15:27.522Z,4.05
2023-05-05T07:18:16.376Z,4.00
2023-05-05T07:21:02.658Z,4.03
2023-05-05T07:23:49.056Z,4.60
2023-05-05T07:26:35.403Z,4.00
2023-05-05T07:29:21.488Z,4.00
2023-05-05T07:32:07.522Z,3.97
2023-05-05T07:34:53.673Z,4.05
2023-05-05T07:37:39.753Z,4.30
2023-05-05T07:40:26.127Z,3.92
2023-05-05T07:43:12.301Z,3.97
2023-05-05T07:45:58.434Z,4.35
2023-05-05T07:48:44.597Z,4.18
2023-05-05T07:51:33.909Z,4.38
2023-05-05T07:54:20.913Z,4.32
2023-05-05T07:59:53.336Z,3.85
2023-05-05T08:02:40.384Z,4.32
2023-05-05T08:08:12.700Z,3.90
2023-05-05T08:13:45.697Z,3.95
2023-05-05T08:16:32.049Z,7.10
2023-05-05T08:22:17.036Z,4.10
2023-05-05T08:25:03.077Z,4.43
2023-05-05T08:27:49.841Z,4.10
2023-05-05T08:30:36.462Z,4.00
2023-05-05T08:33:22.749Z,4.05
2023-05-05T08:36:08.916Z,3.85
2023-05-05T08:38:55.742Z,4.30
2023-05-05T08:44:28.900Z,3.92
2023-05-05T08:47:16.273Z,4.05
2023-05-05T08:50:03.123Z,4.07
2023-05-05T08:52:56.056Z,4.25
2023-05-05T08:55:55.416Z,4.20
2023-05-05T08:58:44.580Z,4.22
2023-05-05T09:01:33.388Z,4.32
2023-05-05T09:04:20.125Z,4.53
2023-05-05T09:09:52.375Z,3.42
2023-05-05T09:12:42.324Z,4.10
2023-05-05T09:15:28.542Z,4.30
2023-05-05T09:18:15.121Z,3.92
2023-05-05T09:21:05.237Z,4.03
2023-05-05T09:24:18.747Z,3.50
2023-05-05T09:27:21.868Z,4.72
2023-05-05T09:30:10.754Z,3.72
2023-05-05T09:32:56.732Z,3.78
2023-05-05T09:38:39.026Z,4.00
2023-05-05T09:41:38.645Z,3.83
2023-05-05T09:44:38.078Z,4.35
2023-05-05T09:47:37.370Z,3.50
2023-05-05T09:50:24.163Z,3.83
2023-05-05T09:53:11.823Z,3.53
2023-05-05T09:56:00.049Z,3.92
2023-05-05T09:58:46.404Z,3.60
2023-05-05T10:01:32.849Z,3.63
2023-05-05T10:04:31.104Z,3.22
2023-05-05T10:10:13.248Z,3.72
2023-05-05T10:12:59.576Z,3.45
2023-05-05T10:15:47.754Z,3.78
2023-05-05T10:18:34.181Z,3.42
2023-05-05T10:21:21.715Z,3.58
2023-05-05T10:24:12.067Z,3.28
2023-05-05T10:26:59.887Z,3.10
2023-05-05T10:30:03.404Z,3.50
2023-05-05T10:36:06.626Z,3.30
2023-05-05T10:38:59.119Z,2.90
2023-05-05T10:41:47.340Z,3.17
2023-05-05T10:44:34.558Z,3.10
2023-05-05T10:47:22.537Z,3.28
2023-05-05T10:50:30.901Z,3.05
2023-05-05T10:53:20.773Z,2.90
2023-05-05T10:56:19.934Z,3.20
2023-05-05T10:59:35.257Z,3.40
2023-05-05T11:02:23.525Z,3.38
2023-05-05T11:05:12.204Z,3.60
2023-05-05T11:08:41.992Z,3.05
2023-05-05T11:12:04.154Z,3.22
2023-05-05T11:15:22.341Z,4.28
2023-05-05T11:18:27.672Z,4.47
2023-05-05T11:21:15.878Z,4.30
2023-05-05T11:24:31.297Z,4.22
2023-05-05T11:27:17.704Z,4.43
2023-05-05T11:30:03.883Z,4.85
2023-05-05T11:33:23.015Z,4.60
2023-05-05T11:36:14.505Z,4.78
2023-05-05T11:39:22.975Z,4.50
2023-05-05T11:42:30.282Z,4.25
2023-05-05T11:45:21.737Z,5.22
2023-05-05T11:48:29.833Z,4.35
2023-05-05T11:51:17.382Z,3.97
2023-05-05T11:54:03.579Z,3.78
2023-05-05T11:59:37.509Z,4.07
2023-05-05T12:02:25.166Z,3.63
2023-05-05T12:05:11.187Z,3.88
2023-05-05T12:07:58.469Z,3.25
2023-05-05T12:10:44.427Z,3.95
2023-05-05T12:13:31.006Z,3.97
2023-05-05T12:16:18.237Z,3.70
2023-05-05T12:19:08.584Z,4.38
2023-05-05T12:21:54.626Z,3.65
2023-05-05T12:24:40.712Z,4.55
2023-05-05T12:27:27.646Z,4.80
2023-05-05T12:30:16.499Z,4.82
2023-05-05T12:33:04.481Z,4.32
2023-05-05T12:35:50.958Z,4.03
2023-05-05T12:38:36.866Z,4.22
2023-05-05T12:41:22.812Z,4.10
2023-05-05T12:44:08.779Z,3.78
2023-05-05T12:46:56.443Z,4.63
2023-05-05T12:49:52.554Z,4.20
2023-05-05T12:52:44.163Z,3.78
2023-05-05T12:55:37.744Z,3.85
2023-05-05T12:58:23.731Z,3.78
2023-05-05T13:01:10.929Z,3.60
2023-05-05T13:04:12.049Z,3.60
2023-05-05T13:07:12.181Z,3.85
2023-05-05T13:10:11.620Z,3.38
2023-05-05T13:12:58.494Z,3.30
2023-05-05T13:15:45.158Z,3.63
2023-05-05T13:18:31.327Z,3.72
2023-05-05T13:21:18.694Z,3.63
2023-05-05T13:24:21.285Z,3.88
2023-05-05T13:27:09.552Z,3.65
2023-05-05T13:29:55.913Z,3.30
2023-05-05T13:32:42.284Z,3.30
2023-05-05T13:35:28.655Z,3.63
2023-05-05T13:38:14.896Z,3.05
2023-05-05T13:41:00.973Z,3.25
2023-05-05T13:43:47.114Z,3.28
2023-05-05T13:46:33.038Z,3.03
2023-05-05T13:49:20.016Z,3.10
2023-05-05T13:52:06.284Z,3.13
2023-05-05T13:54:53.850Z,3.40
2023-05-05T13:57:40.077Z,3.13
2023-05-05T14:00:27.706Z,3.00
2023-05-05T14:03:13.972Z,3.03
2023-05-05T14:08:46.410Z,3.17
2023-05-05T14:11:32.617Z,4.15
2023-05-05T14:17:05.417Z,3.40
2023-05-05T14:22:37.495Z,3.35
2023-05-05T14:25:23.462Z,3.17
2023-05-05T14:30:56.112Z,3.20
2023-05-05T14:33:42.109Z,3.40
2023-05-05T14:36:28.386Z,2.83
2023-05-05T14:39:14.427Z,3.35
2023-05-05T14:42:01.552Z,3.30
2023-05-05T14:44:47.595Z,3.15
2023-05-05T14:47:34.690Z,3.08
2023-05-05T14:50:20.796Z,3.55
2023-05-05T14:55:52.955Z,3.40
2023-05-05T14:58:38.960Z,3.10
2023-05-05T15:01:25.784Z,3.13
2023-05-05T15:04:11.678Z,3.63
2023-05-05T15:06:57.634Z,3.67
2023-05-05T15:09:43.538Z,3.47
2023-05-05T15:12:29.324Z,3.47
2023-05-05T15:15:15.402Z,3.38
2023-05-05T15:18:01.487Z,3.22
2023-05-05T15:20:47.676Z,3.78
2023-05-05T15:23:33.712Z,3.75
2023-05-05T15:26:19.744Z,3.30
2023-05-05T15:31:52.734Z,3.05
2023-05-05T15:34:38.773Z,4.13
2023-05-05T15:37:25.474Z,3.30
2023-05-05T15:42:57.961Z,3.13
2023-05-05T15:48:30.278Z,3.47
2023-05-05T15:51:16.563Z,3.50
2023-05-05T15:54:02.647Z,3.50
2023-05-05T15:56:48.792Z,3.70
2023-05-05T15:59:35.426Z,4.10
2023-05-05T16:02:21.345Z,4.25
2023-05-05T16:05:08.251Z,3.90
2023-05-05T16:07:54.605Z,4.60
2023-05-05T16:10:40.846Z,4.32
2023-05-05T16:13:27.188Z,4.43
2023-05-05T16:16:13.117Z,4.13
2023-05-05T16:18:58.892Z,4.45
2023-05-05T16:21:45.647Z,4.63
2023-05-05T16:24:32.051Z,4.15
2023-05-05T16:27:18.249Z,4.28
2023-05-05T16:30:04.607Z,4.88
2023-05-05T16:32:51.838Z,4.65
2023-05-05T16:35:38.240Z,4.93
2023-05-05T16:38:24.266Z,4.57
2023-05-05T16:41:11.255Z,4.47
2023-05-05T16:43:57.005Z,4.90
2023-05-05T16:46:43.116Z,4.43
2023-05-05T16:49:29.477Z,4.93
2023-05-05T16:52:15.384Z,4.85
2023-05-05T16:55:04.524Z,4.30
2023-05-05T16:57:50.513Z,4.78
2023-05-05T17:00:36.987Z,4.57
2023-05-05T17:03:22.820Z,4.80
2023-05-05T17:06:09.450Z,4.38
2023-05-05T17:08:55.582Z,4.65
2023-05-05T17:11:41.719Z,4.72
2023-05-05T17:14:27.562Z,4.45
2023-05-05T17:17:13.656Z,4.55
2023-05-05T17:20:03.104Z,4.75
2023-05-05T17:22:49.327Z,4.38
2023-05-05T17:25:35.835Z,4.93
2023-05-05T17:28:21.760Z,4.13
2023-05-05T17:31:07.869Z,4.65
2023-05-05T17:33:54.142Z,4.28
2023-05-05T17:36:40.508Z,4.50
2023-05-05T17:42:12.648Z,4.32
2023-05-05T17:45:01.473Z,4.68
2023-05-05T17:47:47.772Z,4.50
2023-05-05T17:50:33.750Z,5.00
2023-05-05T17:53:19.705Z,4.90
2023-05-05T17:56:07.273Z,4.60
2023-05-05T17:58:55.286Z,4.32
2023-05-05T18:01:41.533Z,4.30
2023-05-05T18:07:14.653Z,4.28
2023-05-05T18:10:00.860Z,4.32
2023-05-05T18:12:47.302Z,4.00
2023-05-05T18:15:33.651Z,3.75
2023-05-05T18:18:20.027Z,4.70
2023-05-05T18:21:05.986Z,4.53
2023-05-05T18:26:50.179Z,4.10
2023-05-05T18:29:36.489Z,4.22
2023-05-05T18:32:23.766Z,3.75
2023-05-05T18:35:10.882Z,4.05
2023-05-05T18:37:57.571Z,4.03
2023-05-05T18:40:44.531Z,5.38
2023-05-05T18:43:30.913Z,4.50
2023-05-05T18:49:03.842Z,4.45
2023-05-05T18:51:49.888Z,4.40
2023-05-05T18:54:37.794Z,4.30
2023-05-05T18:57:24.088Z,3.78
2023-05-05T19:00:11.277Z,1.98
2023-05-05T19:05:43.416Z,1.70
2023-05-05T19:08:29.492Z,1.42
2023-05-05T19:11:15.560Z,1.88
2023-05-05T19:14:02.009Z,1.80
2023-05-05T19:16:48.114Z,1.63
2023-05-05T19:19:34.116Z,1.73
2023-05-05T19:22:22.963Z,1.90
2023-05-05T19:25:09.681Z,2.50
2023-05-05T19:30:41.828Z,2.22
2023-05-05T19:33:28.356Z,1.67
2023-05-05T19:36:14.654Z,2.00
2023-05-05T19:39:01.877Z,1.77
2023-05-05T19:41:48.318Z,1.80
2023-05-05T19:44:34.253Z,1.80
2023-05-05T19:47:20.006Z,1.80
2023-05-05T19:50:06.521Z,2.00
2023-05-05T19:52:54.490Z,1.67
2023-05-05T19:55:40.526Z,1.77
2023-05-05T19:58:26.428Z,2.05
2023-05-05T20:01:12.530Z,1.98
2023-05-05T20:04:00.077Z,2.05
2023-05-05T20:06:46.384Z,2.03
2023-05-05T20:09:33.150Z,1.70
2023-05-05T20:12:21.546Z,2.03
2023-05-05T20:15:08.617Z,1.75
2023-05-05T20:17:55.374Z,1.58
2023-05-05T20:20:42.137Z,1.80
2023-05-05T20:23:28.327Z,1.50
2023-05-05T20:26:14.284Z,1.90
2023-05-05T20:29:00.421Z,1.80
2023-05-05T20:31:47.875Z,1.90
2023-05-05T20:34:34.122Z,1.70
2023-05-05T20:37:21.818Z,1.90
2023-05-05T20:40:08.783Z,1.80
2023-05-05T20:42:55.168Z,1.70
2023-05-05T20:45:41.241Z,2.00
2023-05-05T20:48:27.452Z,1.90
2023-05-05T20:51:13.967Z,1.73
2023-05-05T20:54:01.197Z,1.95
2023-05-05T20:56:47.610Z,1.80
2023-05-05T20:59:33.662Z,2.03
2023-05-05T21:02:19.703Z,2.00
2023-05-05T21:05:06.439Z,1.92
2023-05-05T21:07:54.039Z,2.05
2023-05-05T21:10:39.990Z,1.90
2023-05-05T21:13:25.934Z,1.70
2023-05-05T21:16:12.081Z,1.73
2023-05-05T21:18:59.151Z,2.10
2023-05-05T21:21:46.060Z,1.83
2023-05-05T21:24:32.335Z,2.25
2023-05-05T21:27:18.363Z,2.00
2023-05-05T21:30:04.812Z,2.00
2023-05-05T21:32:51.760Z,1.92
2023-05-05T21:35:38.030Z,1.95
2023-05-05T21:38:24.341Z,1.95
2023-05-05T21:41:10.444Z,1.75
2023-05-05T21:43:57.641Z,1.98
2023-05-05T21:49:29.596Z,1.92
2023-05-05T21:52:15.722Z,1.90
2023-05-05T21:55:02.238Z,1.83
2023-05-05T21:57:48.912Z,1.90
2023-05-05T22:00:34.871Z,2.15
2023-05-05T22:03:21.496Z,1.80
2023-05-05T22:06:07.395Z,2.08
2023-05-05T22:08:53.678Z,2.00
2023-05-05T22:11:40.003Z,1.90
2023-05-05T22:14:26.380Z,1.70
2023-05-05T22:17:15.513Z,1.83
2023-05-05T22:20:01.870Z,2.42
2023-05-05T22:22:48.167Z,2.17
2023-05-05T22:25:34.410Z,1.90
2023-05-05T22:28:21.384Z,2.00
2023-05-05T22:31:07.515Z,1.90
2023-05-05T22:33:53.715Z,1.90
2023-05-05T22:36:39.901Z,2.15
2023-05-05T22:39:25.665Z,2.10
2023-05-05T22:42:11.856Z,1.90
2023-05-05T22:44:58.293Z,1.90
2023-05-05T22:47:44.617Z,2.03
2023-05-05T22:50:30.900Z,2.20
2023-05-05T22:53:17.227Z,2.00
2023-05-05T22:56:03.279Z,1.90
2023-05-05T22:58:49.438Z,2.10
2023-05-05T23:01:35.497Z,2.33
2023-05-05T23:04:21.932Z,2.28
2023-05-05T23:07:08.496Z,2.10
2023-05-05T23:09:54.920Z,1.92
2023-05-05T23:12:41.370Z,1.90
2023-05-05T23:15:27.686Z,1.83
2023-05-05T23:18:13.868Z,1.95
2023-05-05T23:20:59.773Z,2.00
2023-05-05T23:23:46.303Z,2.08
2023-05-05T23:26:32.128Z,2.22
2023-05-05T23:29:18.809Z,2.08
2023-05-05T23:32:05.787Z,2.15
2023-05-05T23:34:51.671Z,2.00
2023-05-05T23:37:37.746Z,2.22
2023-05-05T23:40:23.953Z,2.15
2023-05-05T23:43:11.929Z,2.00
2023-05-05T23:45:58.313Z,2.20
2023-05-05T23:48:44.316Z,2.15
2023-05-05T23:51:31.058Z,2.45
2023-05-05T23:54:17.315Z,2.25
2023-05-05T23:57:03.533Z,2.38
2023-05-05T23:59:49.278Z,2.58
